F/V Cote D'ambre — FPEY — position and weather

sailwx.info

Track history (hours):
 
Tides and Currents Weather Stations Pressure Air Temp Water Temp Dewpoint Dewpoint Depression Visibility Wind Speed Wind Dir Waves Ship Positions

F/V Cote D'ambre

Last reported at 2016-Feb-06 03:31 UTC. Time now 2016-Feb-08 06:11 UTC.
Position N 47°44' W 003°22'.

Length 16 m; draft 4 m.

Type: Fishing. MMSI: 227128800.

Date/timePositionNaut miles runAvg speedWind from/ knotsBaromVisibWave heightAir tempDewpointWater temp
2016-Feb-06 03:31N 47°44' W 003°22'0 0.1
2016-Feb-06 02:32N 47°44' W 003°22'6 5.8
2016-Feb-06 01:33N 47°38' W 003°22'8 8.4
2016-Feb-06 00:34N 47°30' W 003°21'8 8.2
2016-Feb-05 23:33N 47°21' W 003°20'8 7.9
2016-Feb-05 22:33N 47°14' W 003°19'8 5.7
2016-Feb-05 21:12N 47°06' W 003°20'13 1.0
2016-Feb-05 08:33N 46°53' W 003°21'22 7.0
2016-Feb-05 05:29N 47°15' W 003°22'8 8.7
2016-Feb-05 04:33N 47°23' W 003°22'9 8.8
2016-Feb-05 03:33N 47°32' W 003°22'9 8.7
2016-Feb-05 02:33N 47°40' W 003°22'3 3.3
2016-Feb-05 01:31N 47°44' W 003°22'0 0.2
2016-Feb-05 00:32N 47°44' W 003°22'6 5.7
2016-Feb-04 23:33N 47°38' W 003°22'9 8.7
2016-Feb-04 22:33N 47°30' W 003°22'8 8.4
2016-Feb-04 21:33N 47°21' W 003°23'8 8.4
2016-Feb-04 20:33N 47°13' W 003°24'2 0.1
2016-Feb-03 17:13N 47°11' W 003°23'2 0.1
2016-Feb-03 07:06N 47°12' W 003°25'4 7.0
2016-Feb-03 06:28N 47°16' W 003°25'8 8.4
2016-Feb-03 05:33N 47°24' W 003°24'8 8.2
2016-Feb-03 04:33N 47°32' W 003°23'8 8.1
2016-Feb-03 03:34N 47°40' W 003°22'4 3.5
2016-Feb-03 02:31N 47°44' W 003°22'4 3.9
2016-Feb-03 01:33N 47°41' W 003°25'7 7.1
2016-Feb-03 00:33N 47°37' W 003°34'2 2.0
2016-Feb-02 23:33N 47°35' W 003°35'3 2.9
2016-Feb-02 22:33N 47°33' W 003°31'3 2.9
2016-Feb-02 21:33N 47°31' W 003°29'3 3.3
2016-Feb-02 20:33N 47°31' W 003°24'2 2.3
2016-Feb-02 19:33N 47°30' W 003°21'3 3.0
2016-Feb-02 18:33N 47°31' W 003°25'2 2.2
2016-Feb-02 17:33N 47°30' W 003°22'2 2.4
2016-Feb-02 16:33N 47°28' W 003°21'3 2.8
2016-Feb-02 15:33N 47°31' W 003°22'3 3.3
2016-Feb-02 14:33N 47°33' W 003°26'1 1.3
2016-Feb-02 13:34N 47°34' W 003°28'3 3.0
2016-Feb-02 12:34N 47°32' W 003°24'3 2.7
2016-Feb-02 11:34N 47°30' W 003°21'3 2.8
2016-Feb-02 10:33N 47°31' W 003°25'2 1.7
2016-Feb-02 09:33N 47°30' W 003°25'2 2.3
2016-Feb-02 08:34N 47°27' W 003°25'3 2.9
2016-Feb-02 07:34N 47°28' W 003°29'3 3.1
2016-Feb-02 06:33N 47°31' W 003°27'5 5.2
2016-Feb-02 05:34N 47°35' W 003°23'7 7.2
2016-Feb-02 04:34N 47°42' W 003°22'  
2016-Jan-30 04:27N 47°44' W 003°22'0 0.0
2016-Jan-30 03:31N 47°44' W 003°22'0 0.0
2016-Jan-30 02:31N 47°44' W 003°22'1 1.2
2016-Jan-30 01:33N 47°43' W 003°22'8 7.8
2016-Jan-30 00:33N 47°35' W 003°22'8 7.8
2016-Jan-29 23:33N 47°27' W 003°26'8 7.8
2016-Jan-29 22:33N 47°20' W 003°30'7 7.4
2016-Jan-29 21:33N 47°13' W 003°33'12 0.4
2016-Jan-28 12:19N 47°03' W 003°24'7 2.4
2016-Jan-28 09:23N 47°10' W 003°23'3 3.2
2016-Jan-28 08:33N 47°13' W 003°26'8 8.3
2016-Jan-28 07:33N 47°21' W 003°24'8 8.2
2016-Jan-28 06:33N 47°29' W 003°23'8 8.2
2016-Jan-28 05:33N 47°37' W 003°22'7 6.4
2016-Jan-28 04:32N 47°44' W 003°22'0 0.2
2016-Jan-28 03:33N 47°44' W 003°22'0 0.1
2016-Jan-28 02:32N 47°44' W 003°22'0 0.2
2016-Jan-28 01:33N 47°44' W 003°22'0 0.0
2016-Jan-28 00:33N 47°44' W 003°22'1 1.0
2016-Jan-27 23:33N 47°43' W 003°22'7 7.3
2016-Jan-27 22:33N 47°36' W 003°22'7 7.4
2016-Jan-27 21:33N 47°28' W 003°21'7 7.4
2016-Jan-27 20:33N 47°21' W 003°21'6 6.2
2016-Jan-27 19:33N 47°15' W 003°21'  
Track history (hours):
 
Tides and Currents Weather Stations Pressure Air Temp Water Temp Dewpoint Dewpoint Depression Visibility Wind Speed Wind Dir Waves Ship Positions

F/V Cote D'ambre

Last reported at 2016-Feb-06 03:31 UTC. Time now 2016-Feb-08 06:11 UTC.
Position N 47°44' W 003°22'.

Length 16 m; draft 4 m.

Type: Fishing. MMSI: 227128800.

Date/timePositionNaut miles runAvg speedWind from/ knotsBaromVisibWave heightAir tempDewpointWater temp
2016-Feb-06 03:31N 47°44' W 003°22'0 0.1
2016-Feb-06 02:32N 47°44' W 003°22'6 5.8
2016-Feb-06 01:33N 47°38' W 003°22'8 8.4
2016-Feb-06 00:34N 47°30' W 003°21'8 8.2
2016-Feb-05 23:33N 47°21' W 003°20'8 7.9
2016-Feb-05 22:33N 47°14' W 003°19'8 5.7
2016-Feb-05 21:12N 47°06' W 003°20'13 1.0
2016-Feb-05 08:33N 46°53' W 003°21'22 7.0
2016-Feb-05 05:29N 47°15' W 003°22'8 8.7
2016-Feb-05 04:33N 47°23' W 003°22'9 8.8
2016-Feb-05 03:33N 47°32' W 003°22'9 8.7
2016-Feb-05 02:33N 47°40' W 003°22'3 3.3
2016-Feb-05 01:31N 47°44' W 003°22'0 0.2
2016-Feb-05 00:32N 47°44' W 003°22'6 5.7
2016-Feb-04 23:33N 47°38' W 003°22'9 8.7
2016-Feb-04 22:33N 47°30' W 003°22'8 8.4
2016-Feb-04 21:33N 47°21' W 003°23'8 8.4
2016-Feb-04 20:33N 47°13' W 003°24'2 0.1
2016-Feb-03 17:13N 47°11' W 003°23'2 0.1
2016-Feb-03 07:06N 47°12' W 003°25'4 7.0
2016-Feb-03 06:28N 47°16' W 003°25'8 8.4
2016-Feb-03 05:33N 47°24' W 003°24'8 8.2
2016-Feb-03 04:33N 47°32' W 003°23'8 8.1
2016-Feb-03 03:34N 47°40' W 003°22'4 3.5
2016-Feb-03 02:31N 47°44' W 003°22'4 3.9
2016-Feb-03 01:33N 47°41' W 003°25'7 7.1
2016-Feb-03 00:33N 47°37' W 003°34'2 2.0
2016-Feb-02 23:33N 47°35' W 003°35'3 2.9
2016-Feb-02 22:33N 47°33' W 003°31'3 2.9
2016-Feb-02 21:33N 47°31' W 003°29'3 3.3
2016-Feb-02 20:33N 47°31' W 003°24'2 2.3
2016-Feb-02 19:33N 47°30' W 003°21'3 3.0
2016-Feb-02 18:33N 47°31' W 003°25'2 2.2
2016-Feb-02 17:33N 47°30' W 003°22'2 2.4
2016-Feb-02 16:33N 47°28' W 003°21'3 2.8
2016-Feb-02 15:33N 47°31' W 003°22'3 3.3
2016-Feb-02 14:33N 47°33' W 003°26'1 1.3
2016-Feb-02 13:34N 47°34' W 003°28'3 3.0
2016-Feb-02 12:34N 47°32' W 003°24'3 2.7
2016-Feb-02 11:34N 47°30' W 003°21'3 2.8
2016-Feb-02 10:33N 47°31' W 003°25'2 1.7
2016-Feb-02 09:33N 47°30' W 003°25'2 2.3
2016-Feb-02 08:34N 47°27' W 003°25'3 2.9
2016-Feb-02 07:34N 47°28' W 003°29'3 3.1
2016-Feb-02 06:33N 47°31' W 003°27'5 5.2
2016-Feb-02 05:34N 47°35' W 003°23'7 7.2
2016-Feb-02 04:34N 47°42' W 003°22'  
2016-Jan-30 04:27N 47°44' W 003°22'0 0.0
2016-Jan-30 03:31N 47°44' W 003°22'0 0.0
2016-Jan-30 02:31N 47°44' W 003°22'1 1.2
2016-Jan-30 01:33N 47°43' W 003°22'8 7.8
2016-Jan-30 00:33N 47°35' W 003°22'8 7.8
2016-Jan-29 23:33N 47°27' W 003°26'8 7.8
2016-Jan-29 22:33N 47°20' W 003°30'7 7.4
2016-Jan-29 21:33N 47°13' W 003°33'12 0.4
2016-Jan-28 12:19N 47°03' W 003°24'7 2.4
2016-Jan-28 09:23N 47°10' W 003°23'3 3.2
2016-Jan-28 08:33N 47°13' W 003°26'8 8.3
2016-Jan-28 07:33N 47°21' W 003°24'8 8.2
2016-Jan-28 06:33N 47°29' W 003°23'8 8.2
2016-Jan-28 05:33N 47°37' W 003°22'7 6.4
2016-Jan-28 04:32N 47°44' W 003°22'0 0.2
2016-Jan-28 03:33N 47°44' W 003°22'0 0.1
2016-Jan-28 02:32N 47°44' W 003°22'0 0.2
2016-Jan-28 01:33N 47°44' W 003°22'0 0.0
2016-Jan-28 00:33N 47°44' W 003°22'1 1.0
2016-Jan-27 23:33N 47°43' W 003°22'7 7.3
2016-Jan-27 22:33N 47°36' W 003°22'7 7.4
2016-Jan-27 21:33N 47°28' W 003°21'7 7.4
2016-Jan-27 20:33N 47°21' W 003°21'6 6.2
2016-Jan-27 19:33N 47°15' W 003°21'  

Dump ship's entire track history